Webcam & Weather

This webcam image will automatically refresh every 15 seconds.


METAR and TAF for EGLL Heathrow (12 Nautical Miles East of White Waltham)

METAR FOR EGLL (Issued: Sun, December 4th 2016 11:50 AM UTC):
EGLL 041150Z AUTO 08010KT 9999 NCD 07/02 Q1023 NOSIG

TAF FOR EGLL (Issued: Sun, December 4th 2016 12:15 PM UTC):
TAF EGLL 041057Z 0412/0518 06008KT CAVOK BECMG 0422/0501 6000 BECMG 0504/0507 2000 BR BKN003 PROB30 TEMPO 0506/0512 0200 FG VV/// PROB30 TEMPO 0512/0518 1200

Play 24 hour timelapse | Play 30 day timelapse

Comments are closed.